sensor_id;sensor_type;location;lat;lon;timestamp;temperature;humidity
14775;DHT22;7479;47.042;15.160;2023-02-11T08:38:53;-2.00;99.90
14775;DHT22;7479;47.042;15.160;2023-02-11T08:44:03;-1.80;99.90
14775;DHT22;7479;47.042;15.160;2023-02-11T08:48:57;-1.40;99.90
14775;DHT22;7479;47.042;15.160;2023-02-11T08:53:53;-1.00;99.90
14775;DHT22;7479;47.042;15.160;2023-02-11T08:58:46;-0.60;99.90
14775;DHT22;7479;47.042;15.160;2023-02-11T09:03:40;-0.40;99.90
14775;DHT22;7479;47.042;15.160;2023-02-11T09:08:37;-0.20;99.90
14775;DHT22;7479;47.042;15.160;2023-02-11T09:13:33;0.00;99.90
14775;DHT22;7479;47.042;15.160;2023-02-11T09:18:26;0.20;99.90
14775;DHT22;7479;47.042;15.160;2023-02-11T09:23:20;0.50;99.90
14775;DHT22;7479;47.042;15.160;2023-02-11T09:28:14;0.80;99.90
14775;DHT22;7479;47.042;15.160;2023-02-11T09:33:09;1.20;99.90
14775;DHT22;7479;47.042;15.160;2023-02-11T09:38:02;1.70;99.50
14775;DHT22;7479;47.042;15.160;2023-02-11T09:43:01;2.00;97.30
14775;DHT22;7479;47.042;15.160;2023-02-11T09:47:58;2.10;96.00
14775;DHT22;7479;47.042;15.160;2023-02-11T09:52:59;2.20;95.60
14775;DHT22;7479;47.042;15.160;2023-02-11T09:57:55;2.50;93.80
14775;DHT22;7479;47.042;15.160;2023-02-11T10:08:35;3.20;89.90
14775;DHT22;7479;47.042;15.160;2023-02-11T10:13:39;3.50;85.20
14775;DHT22;7479;47.042;15.160;2023-02-11T10:18:45;3.80;82.90
14775;DHT22;7479;47.042;15.160;2023-02-11T10:23:49;4.10;81.10
14775;DHT22;7479;47.042;15.160;2023-02-11T10:28:46;4.30;80.70
14775;DHT22;7479;47.042;15.160;2023-02-11T10:33:44;4.50;80.90
14775;DHT22;7479;47.042;15.160;2023-02-11T10:38:39;4.80;80.70
14775;DHT22;7479;47.042;15.160;2023-02-11T10:43:34;5.30;79.40
14775;DHT22;7479;47.042;15.160;2023-02-11T10:48:40;5.70;77.30
14775;DHT22;7479;47.042;15.160;2023-02-11T10:53:34;6.00;75.60
14775;DHT22;7479;47.042;15.160;2023-02-11T10:58:40;6.50;70.40
14775;DHT22;7479;47.042;15.160;2023-02-11T11:03:38;7.10;67.00
14775;DHT22;7479;47.042;15.160;2023-02-11T11:08:41;7.50;66.60
14775;DHT22;7479;47.042;15.160;2023-02-11T11:13:37;8.00;64.20
14775;DHT22;7479;47.042;15.160;2023-02-11T11:18:33;8.50;64.20
14775;DHT22;7479;47.042;15.160;2023-02-11T11:23:28;9.00;64.60
14775;DHT22;7479;47.042;15.160;2023-02-11T11:28:24;9.30;63.90
14775;DHT22;7479;47.042;15.160;2023-02-11T11:33:22;9.30;63.20
14775;DHT22;7479;47.042;15.160;2023-02-11T11:38:18;8.90;62.70
14775;DHT22;7479;47.042;15.160;2023-02-11T11:43:17;8.30;64.10
14775;DHT22;7479;47.042;15.160;2023-02-11T11:48:21;7.80;63.20
14775;DHT22;7479;47.042;15.160;2023-02-11T11:53:22;7.70;63.50
14775;DHT22;7479;47.042;15.160;2023-02-11T11:58:19;8.70;62.40
14775;DHT22;7479;47.042;15.160;2023-02-11T12:08:50;10.60;54.50
14775;DHT22;7479;47.042;15.160;2023-02-11T12:13:55;11.20;45.70
14775;DHT22;7479;47.042;15.160;2023-02-11T12:19:14;11.80;45.40
14775;DHT22;7479;47.042;15.160;2023-02-11T12:24:29;12.60;43.20
14775;DHT22;7479;47.042;15.160;2023-02-11T12:29:32;13.10;41.60
14775;DHT22;7479;47.042;15.160;2023-02-11T12:40:03;14.30;41.70
14775;DHT22;7479;47.042;15.160;2023-02-11T12:45:12;14.60;40.90
14775;DHT22;7479;47.042;15.160;2023-02-11T12:50:16;14.50;40.70
14775;DHT22;7479;47.042;15.160;2023-02-11T12:55:20;14.90;40.60
14775;DHT22;7479;47.042;15.160;2023-02-11T13:00:18;14.90;39.00
14775;DHT22;7479;47.042;15.160;2023-02-11T13:05:22;15.20;38.60
14775;DHT22;7479;47.042;15.160;2023-02-11T13:10:31;15.40;38.00
14775;DHT22;7479;47.042;15.160;2023-02-11T13:15:26;15.80;36.50
14775;DHT22;7479;47.042;15.160;2023-02-11T13:20:29;15.90;36.00
14775;DHT22;7479;47.042;15.160;2023-02-11T13:25:30;16.10;35.90
14775;DHT22;7479;47.042;15.160;2023-02-11T13:30:28;16.00;37.20
14775;DHT22;7479;47.042;15.160;2023-02-11T13:35:29;16.10;37.40
14775;DHT22;7479;47.042;15.160;2023-02-11T13:40:25;16.40;37.80
14775;DHT22;7479;47.042;15.160;2023-02-11T13:45:29;15.10;38.90
14775;DHT22;7479;47.042;15.160;2023-02-11T13:50:23;13.10;41.70
14775;DHT22;7479;47.042;15.160;2023-02-11T13:55:21;12.10;44.80
14775;DHT22;7479;47.042;15.160;2023-02-11T14:00:49;12.20;45.60
14775;DHT22;7479;47.042;15.160;2023-02-11T14:06:10;12.80;44.50
14775;DHT22;7479;47.042;15.160;2023-02-11T14:11:47;12.20;45.30
14775;DHT22;7479;47.042;15.160;2023-02-11T14:22:18;11.20;48.00
14775;DHT22;7479;47.042;15.160;2023-02-11T14:27:20;10.80;49.10
14775;DHT22;7479;47.042;15.160;2023-02-11T14:32:29;10.50;49.60
14775;DHT22;7479;47.042;15.160;2023-02-11T14:37:36;10.30;50.40
14775;DHT22;7479;47.042;15.160;2023-02-11T14:42:31;10.60;50.50
14775;DHT22;7479;47.042;15.160;2023-02-11T14:47:28;13.50;48.80
14775;DHT22;7479;47.042;15.160;2023-02-11T14:52:29;13.70;46.40
14775;DHT22;7479;47.042;15.160;2023-02-11T14:57:23;11.80;48.60
14775;DHT22;7479;47.042;15.160;2023-02-11T15:02:21;10.80;51.10
14775;DHT22;7479;47.042;15.160;2023-02-11T15:07:16;10.20;52.40
14775;DHT22;7479;47.042;15.160;2023-02-11T15:12:15;10.00;53.30
14775;DHT22;7479;47.042;15.160;2023-02-11T15:17:13;9.70;54.70
14775;DHT22;7479;47.042;15.160;2023-02-11T15:22:15;9.40;55.60
14775;DHT22;7479;47.042;15.160;2023-02-11T15:27:13;9.10;55.40
14775;DHT22;7479;47.042;15.160;2023-02-11T15:32:12;8.90;55.50
14775;DHT22;7479;47.042;15.160;2023-02-11T15:37:12;8.70;56.20
14775;DHT22;7479;47.042;15.160;2023-02-11T15:42:19;8.60;56.20
14775;DHT22;7479;47.042;15.160;2023-02-11T15:47:17;8.40;56.30
14775;DHT22;7479;47.042;15.160;2023-02-11T15:52:13;8.30;56.80
14775;DHT22;7479;47.042;15.160;2023-02-11T15:57:09;7.90;59.80
14775;DHT22;7479;47.042;15.160;2023-02-11T16:02:08;7.50;61.10
14775;DHT22;7479;47.042;15.160;2023-02-11T16:07:37;7.30;63.30
14775;DHT22;7479;47.042;15.160;2023-02-11T16:12:32;7.10;64.40
14775;DHT22;7479;47.042;15.160;2023-02-11T16:17:28;7.00;64.80
14775;DHT22;7479;47.042;15.160;2023-02-11T16:22:25;6.90;65.50
14775;DHT22;7479;47.042;15.160;2023-02-11T16:27:23;6.70;66.30
14775;DHT22;7479;47.042;15.160;2023-02-11T16:32:22;6.50;68.00
14775;DHT22;7479;47.042;15.160;2023-02-11T16:37:18;6.20;70.20
14775;DHT22;7479;47.042;15.160;2023-02-11T16:42:11;5.90;71.70
14775;DHT22;7479;47.042;15.160;2023-02-11T16:47:12;5.80;72.50
14775;DHT22;7479;47.042;15.160;2023-02-11T16:52:15;5.60;73.60
